Date,TemperatureHighF,TemperatureAvgF,TemperatureLowF,DewpointHighF,DewpointAvgF,DewpointLowF,HumidityHigh,HumidityAvg,HumidityLow,PressureMaxIn,PressureMinIn,WindSpeedMaxMPH,WindSpeedAvgMPH,GustSpeedMaxMPH,PrecipitationSumIn
2013-7-1,72,64,58,-100,-100,-100,0,0,100,0.00,40.00,0,-999,0,0.00
2013-7-2,86,71,58,-100,-100,-100,0,0,100,0.00,40.00,0,-999,0,0.00
2013-7-3,86,70,60,-100,-100,-100,0,0,100,0.00,40.00,0,-999,0,0.00
2013-7-4,91,76,58,-100,-100,-100,0,0,100,0.00,40.00,0,-999,0,0.00
2013-7-5,94,75,62,-100,-100,-100,0,0,100,0.00,40.00,0,-999,0,0.00
2013-7-6,93,74,66,-100,-100,-100,0,0,100,0.00,40.00,0,-999,0,0.00
2013-7-7,96,79,68,-100,-100,-100,0,0,100,0.00,40.00,0,-999,0,0.00
2013-7-8,91,76,67,-100,-100,-100,0,0,100,0.00,40.00,0,-999,0,0.00
2013-7-9,94,80,64,-100,-100,-100,0,0,100,0.00,40.00,0,-999,0,0.00
2013-7-10,91,78,65,-100,-100,-100,0,0,100,0.00,40.00,0,-999,0,0.00
2013-7-11,87,72,64,-100,-100,-100,0,0,100,0.00,40.00,0,-999,0,0.00
2013-7-12,96,78,67,-100,-100,-100,0,0,100,0.00,40.00,0,-999,0,0.00
2013-7-13,93,78,65,-100,-100,-100,0,0,100,0.00,40.00,0,-999,0,0.00
2013-7-14,84,73,63,-100,-100,-100,0,0,100,0.00,40.00,0,-999,0,0.00
2013-7-15,82,67,60,-100,-100,-100,0,0,100,0.00,40.00,0,-999,0,0.00
2013-7-16,79,68,60,-100,-100,-100,0,0,100,0.00,40.00,0,-999,0,0.00
2013-7-17,80,70,62,-100,-100,-100,0,0,100,0.00,40.00,0,-999,0,0.00
2013-7-18,90,80,61,-100,-100,-100,0,0,100,0.00,40.00,0,-999,0,0.00
2013-7-19,89,73,65,-100,-100,-100,0,0,100,0.00,40.00,0,-999,0,0.00
2013-7-20,85,73,63,-100,-100,-100,0,0,100,0.00,40.00,0,-999,0,0.00
2013-7-21,89,77,63,-100,-100,-100,0,0,100,0.00,40.00,0,-999,0,0.00
2013-7-22,91,78,65,-100,-100,-100,0,0,100,0.00,40.00,0,-999,0,0.00
2013-7-23,87,72,61,-100,-100,-100,0,0,100,0.00,40.00,0,-999,0,0.00
2013-7-24,86,70,63,-100,-100,-100,0,0,100,0.00,40.00,0,-999,0,0.00
2013-7-25,85,75,63,-100,-100,-100,0,0,100,0.00,40.00,0,-999,0,0.00
2013-7-26,83,70,61,-100,-100,-100,0,0,100,0.00,40.00,0,-999,0,0.00
2013-7-27,84,71,59,-100,-100,-100,0,0,100,0.00,40.00,0,-999,0,0.00
2013-7-28,75,63,59,-100,-100,-100,0,0,100,0.00,40.00,0,-999,0,0.00
2013-7-29,87,69,64,-100,-100,-100,0,0,100,0.00,40.00,0,-999,0,0.00
2013-7-30,89,74,62,-100,-100,-100,0,0,100,0.00,40.00,0,-999,0,0.00
2013-7-31,93,76,65,-100,-100,-100,0,0,100,0.00,40.00,0,-999,0,0.00